sensor_id;sensor_type;location;lat;lon;timestamp;temperature;humidity
6355;DHT22;3210;48.708;9.030;2024-03-07T00:00:43;5.20;1.00
6355;DHT22;3210;48.708;9.030;2024-03-07T00:03:13;5.10;17.20
6355;DHT22;3210;48.708;9.030;2024-03-07T00:05:50;5.10;99.90
6355;DHT22;3210;48.708;9.030;2024-03-07T00:08:19;5.10;1.00
6355;DHT22;3210;48.708;9.030;2024-03-07T00:10:46;5.10;1.00
6355;DHT22;3210;48.708;9.030;2024-03-07T00:13:21;5.00;1.00
6355;DHT22;3210;48.708;9.030;2024-03-07T00:16:06;4.90;99.90
6355;DHT22;3210;48.708;9.030;2024-03-07T00:18:34;5.00;99.90
6355;DHT22;3210;48.708;9.030;2024-03-07T00:21:27;4.90;99.90
6355;DHT22;3210;48.708;9.030;2024-03-07T00:23:57;4.90;1.00
6355;DHT22;3210;48.708;9.030;2024-03-07T00:26:35;5.00;99.90
6355;DHT22;3210;48.708;9.030;2024-03-07T00:29:04;4.90;1.00
6355;DHT22;3210;48.708;9.030;2024-03-07T00:31:51;4.90;1.00
6355;DHT22;3210;48.708;9.030;2024-03-07T00:34:32;4.90;1.00
6355;DHT22;3210;48.708;9.030;2024-03-07T00:37:18;4.90;99.90
6355;DHT22;3210;48.708;9.030;2024-03-07T00:39:51;4.80;1.00
6355;DHT22;3210;48.708;9.030;2024-03-07T00:42:23;4.80;99.90
6355;DHT22;3210;48.708;9.030;2024-03-07T00:44:57;4.70;99.90
6355;DHT22;3210;48.708;9.030;2024-03-07T00:47:29;4.70;99.90
6355;DHT22;3210;48.708;9.030;2024-03-07T00:50:01;4.60;1.00
6355;DHT22;3210;48.708;9.030;2024-03-07T00:52:33;4.60;99.90
6355;DHT22;3210;48.708;9.030;2024-03-07T00:55:06;4.50;99.90
6355;DHT22;3210;48.708;9.030;2024-03-07T00:57:36;4.50;1.00
6355;DHT22;3210;48.708;9.030;2024-03-07T01:00:08;4.50;1.00
6355;DHT22;3210;48.708;9.030;2024-03-07T01:02:40;4.50;99.90
6355;DHT22;3210;48.708;9.030;2024-03-07T01:05:22;4.50;1.00
6355;DHT22;3210;48.708;9.030;2024-03-07T01:07:53;4.50;99.90
6355;DHT22;3210;48.708;9.030;2024-03-07T01:10:21;4.50;99.90
6355;DHT22;3210;48.708;9.030;2024-03-07T01:12:50;4.50;99.90
6355;DHT22;3210;48.708;9.030;2024-03-07T01:15:26;4.40;99.90
6355;DHT22;3210;48.708;9.030;2024-03-07T01:18:11;4.40;1.00
6355;DHT22;3210;48.708;9.030;2024-03-07T01:20:46;4.40;99.90
6355;DHT22;3210;48.708;9.030;2024-03-07T01:23:18;4.30;1.00
6355;DHT22;3210;48.708;9.030;2024-03-07T01:25:51;4.30;18.30
6355;DHT22;3210;48.708;9.030;2024-03-07T01:28:31;4.30;99.90
6355;DHT22;3210;48.708;9.030;2024-03-07T01:31:00;4.30;1.00
6355;DHT22;3210;48.708;9.030;2024-03-07T01:33:31;4.30;23.00
6355;DHT22;3210;48.708;9.030;2024-03-07T01:36:10;4.20;1.00
6355;DHT22;3210;48.708;9.030;2024-03-07T01:38:42;4.20;1.00
6355;DHT22;3210;48.708;9.030;2024-03-07T01:41:13;4.20;99.90
6355;DHT22;3210;48.708;9.030;2024-03-07T01:44:03;4.20;99.90
6355;DHT22;3210;48.708;9.030;2024-03-07T01:46:33;4.20;75.60
6355;DHT22;3210;48.708;9.030;2024-03-07T01:49:08;4.20;1.00
6355;DHT22;3210;48.708;9.030;2024-03-07T01:51:39;4.20;1.00
6355;DHT22;3210;48.708;9.030;2024-03-07T01:54:19;4.20;99.90
6355;DHT22;3210;48.708;9.030;2024-03-07T01:56:54;4.30;1.00
6355;DHT22;3210;48.708;9.030;2024-03-07T01:59:24;4.20;1.00
6355;DHT22;3210;48.708;9.030;2024-03-07T02:02:12;4.30;99.90
6355;DHT22;3210;48.708;9.030;2024-03-07T02:04:56;4.20;99.90
6355;DHT22;3210;48.708;9.030;2024-03-07T02:07:29;4.10;99.90
6355;DHT22;3210;48.708;9.030;2024-03-07T02:10:10;4.10;99.90
6355;DHT22;3210;48.708;9.030;2024-03-07T02:12:42;4.10;99.90
6355;DHT22;3210;48.708;9.030;2024-03-07T02:15:17;4.00;1.00
6355;DHT22;3210;48.708;9.030;2024-03-07T02:17:48;4.10;1.00
6355;DHT22;3210;48.708;9.030;2024-03-07T02:20:24;4.10;1.00
6355;DHT22;3210;48.708;9.030;2024-03-07T02:23:00;4.10;1.90
6355;DHT22;3210;48.708;9.030;2024-03-07T02:25:43;4.10;81.10
6355;DHT22;3210;48.708;9.030;2024-03-07T02:28:13;4.10;1.00
6355;DHT22;3210;48.708;9.030;2024-03-07T02:30:54;4.10;1.00
6355;DHT22;3210;48.708;9.030;2024-03-07T02:33:36;3.90;99.90
6355;DHT22;3210;48.708;9.030;2024-03-07T02:36:14;3.80;99.90
6355;DHT22;3210;48.708;9.030;2024-03-07T02:38:49;3.90;99.90
6355;DHT22;3210;48.708;9.030;2024-03-07T02:41:18;4.00;99.90
6355;DHT22;3210;48.708;9.030;2024-03-07T02:44:00;3.90;33.60
6355;DHT22;3210;48.708;9.030;2024-03-07T02:46:36;3.80;1.00
6355;DHT22;3210;48.708;9.030;2024-03-07T02:49:22;3.70;1.00
6355;DHT22;3210;48.708;9.030;2024-03-07T02:51:55;3.50;1.00
6355;DHT22;3210;48.708;9.030;2024-03-07T02:57:39;3.40;67.10
6355;DHT22;3210;48.708;9.030;2024-03-07T03:00:25;3.20;99.90
6355;DHT22;3210;48.708;9.030;2024-03-07T03:03:10;2.90;99.90
6355;DHT22;3210;48.708;9.030;2024-03-07T03:05:46;2.90;1.00
6355;DHT22;3210;48.708;9.030;2024-03-07T03:08:38;2.90;99.90
6355;DHT22;3210;48.708;9.030;2024-03-07T03:11:19;2.90;1.00
6355;DHT22;3210;48.708;9.030;2024-03-07T03:13:57;2.90;1.00
6355;DHT22;3210;48.708;9.030;2024-03-07T03:16:42;2.70;99.90
6355;DHT22;3210;48.708;9.030;2024-03-07T03:19:24;2.70;99.90
6355;DHT22;3210;48.708;9.030;2024-03-07T03:21:57;2.70;99.90
6355;DHT22;3210;48.708;9.030;2024-03-07T03:24:39;2.70;99.90
6355;DHT22;3210;48.708;9.030;2024-03-07T03:27:10;2.80;99.90
6355;DHT22;3210;48.708;9.030;2024-03-07T03:33:12;2.40;99.90
6355;DHT22;3210;48.708;9.030;2024-03-07T03:35:58;2.40;99.90
6355;DHT22;3210;48.708;9.030;2024-03-07T03:38:27;2.20;99.90
6355;DHT22;3210;48.708;9.030;2024-03-07T03:41:24;2.20;99.90
6355;DHT22;3210;48.708;9.030;2024-03-07T03:43:56;2.10;1.00
6355;DHT22;3210;48.708;9.030;2024-03-07T03:46:24;1.90;1.00
6355;DHT22;3210;48.708;9.030;2024-03-07T03:48:59;1.90;1.00
6355;DHT22;3210;48.708;9.030;2024-03-07T03:51:29;1.90;99.90
6355;DHT22;3210;48.708;9.030;2024-03-07T03:53:58;1.70;1.00
6355;DHT22;3210;48.708;9.030;2024-03-07T03:56:33;1.60;99.90
6355;DHT22;3210;48.708;9.030;2024-03-07T03:59:02;1.70;99.90
6355;DHT22;3210;48.708;9.030;2024-03-07T04:01:36;1.70;1.00
6355;DHT22;3210;48.708;9.030;2024-03-07T04:04:26;1.60;1.00
6355;DHT22;3210;48.708;9.030;2024-03-07T04:07:08;1.60;1.00
6355;DHT22;3210;48.708;9.030;2024-03-07T04:09:37;1.60;1.00
6355;DHT22;3210;48.708;9.030;2024-03-07T04:12:05;1.50;99.90
6355;DHT22;3210;48.708;9.030;2024-03-07T04:14:36;1.50;99.90
6355;DHT22;3210;48.708;9.030;2024-03-07T04:17:05;1.40;24.10
6355;DHT22;3210;48.708;9.030;2024-03-07T04:19:40;1.60;1.00
6355;DHT22;3210;48.708;9.030;2024-03-07T04:22:21;1.50;99.90
6355;DHT22;3210;48.708;9.030;2024-03-07T04:25:06;1.60;1.00
6355;DHT22;3210;48.708;9.030;2024-03-07T04:27:42;1.60;99.90
6355;DHT22;3210;48.708;9.030;2024-03-07T04:30:10;1.40;99.90
6355;DHT22;3210;48.708;9.030;2024-03-07T04:32:42;1.50;1.00
6355;DHT22;3210;48.708;9.030;2024-03-07T04:35:19;1.50;97.70
6355;DHT22;3210;48.708;9.030;2024-03-07T04:38:04;1.60;1.00
6355;DHT22;3210;48.708;9.030;2024-03-07T04:40:37;1.60;99.90
6355;DHT22;3210;48.708;9.030;2024-03-07T04:43:07;1.60;1.00
6355;DHT22;3210;48.708;9.030;2024-03-07T04:45:36;1.70;1.00
6355;DHT22;3210;48.708;9.030;2024-03-07T04:48:05;1.80;1.00
6355;DHT22;3210;48.708;9.030;2024-03-07T04:50:38;1.90;1.00
6355;DHT22;3210;48.708;9.030;2024-03-07T04:53:06;1.90;99.90
6355;DHT22;3210;48.708;9.030;2024-03-07T04:55:35;1.90;99.90
6355;DHT22;3210;48.708;9.030;2024-03-07T04:58:03;1.90;99.90
6355;DHT22;3210;48.708;9.030;2024-03-07T05:00:32;1.90;1.00
6355;DHT22;3210;48.708;9.030;2024-03-07T05:03:00;1.80;99.90
6355;DHT22;3210;48.708;9.030;2024-03-07T05:05:28;1.80;1.00
6355;DHT22;3210;48.708;9.030;2024-03-07T05:08:03;1.80;99.90
6355;DHT22;3210;48.708;9.030;2024-03-07T05:10:32;1.80;99.90
6355;DHT22;3210;48.708;9.030;2024-03-07T05:13:08;1.80;99.90
6355;DHT22;3210;48.708;9.030;2024-03-07T05:15:36;2.00;99.90
6355;DHT22;3210;48.708;9.030;2024-03-07T05:18:07;1.90;99.90
6355;DHT22;3210;48.708;9.030;2024-03-07T05:20:42;1.80;99.90
6355;DHT22;3210;48.708;9.030;2024-03-07T05:23:50;1.80;1.00
6355;DHT22;3210;48.708;9.030;2024-03-07T05:26:23;1.90;1.00
6355;DHT22;3210;48.708;9.030;2024-03-07T05:28:53;1.90;99.90
6355;DHT22;3210;48.708;9.030;2024-03-07T05:31:36;1.90;99.90
6355;DHT22;3210;48.708;9.030;2024-03-07T05:34:12;1.80;99.90
6355;DHT22;3210;48.708;9.030;2024-03-07T05:36:54;1.90;99.90
6355;DHT22;3210;48.708;9.030;2024-03-07T05:39:29;1.80;99.90
6355;DHT22;3210;48.708;9.030;2024-03-07T05:42:10;2.00;38.70
6355;DHT22;3210;48.708;9.030;2024-03-07T05:44:52;2.00;1.00
6355;DHT22;3210;48.708;9.030;2024-03-07T05:47:20;1.80;1.00
6355;DHT22;3210;48.708;9.030;2024-03-07T05:49:56;1.70;1.00
6355;DHT22;3210;48.708;9.030;2024-03-07T05:52:39;1.70;41.20
6355;DHT22;3210;48.708;9.030;2024-03-07T05:55:27;1.70;99.90
6355;DHT22;3210;48.708;9.030;2024-03-07T05:57:55;1.60;99.90
6355;DHT22;3210;48.708;9.030;2024-03-07T06:00:34;1.50;99.90
6355;DHT22;3210;48.708;9.030;2024-03-07T06:03:15;1.50;99.90
6355;DHT22;3210;48.708;9.030;2024-03-07T06:05:48;1.40;99.90
6355;DHT22;3210;48.708;9.030;2024-03-07T06:09:20;1.30;99.90
6355;DHT22;3210;48.708;9.030;2024-03-07T07:02:32;1.50;1.00
6355;DHT22;3210;48.708;9.030;2024-03-07T07:15:58;1.40;1.00
6355;DHT22;3210;48.708;9.030;2024-03-07T07:23:22;1.60;1.00
6355;DHT22;3210;48.708;9.030;2024-03-07T07:25:55;1.50;1.00
6355;DHT22;3210;48.708;9.030;2024-03-07T07:28:57;1.40;1.00
6355;DHT22;3210;48.708;9.030;2024-03-07T08:20:01;3.20;1.00
6355;DHT22;3210;48.708;9.030;2024-03-07T08:23:01;3.30;1.00
6355;DHT22;3210;48.708;9.030;2024-03-07T23:15:37;2.50;1.00
6355;DHT22;3210;48.708;9.030;2024-03-07T23:21:28;2.50;1.00
6355;DHT22;3210;48.708;9.030;2024-03-07T23:27:43;2.50;1.00
